sensor_id;sensor_type;location;lat;lon;timestamp;temperature;humidity
64650;HTU21D;51061;45.258;38.112;2022-07-23T00:00:34;19.79;80.53
64650;HTU21D;51061;45.258;38.112;2022-07-23T00:03:00;19.84;80.67
64650;HTU21D;51061;45.258;38.112;2022-07-23T00:05:25;19.71;80.49
64650;HTU21D;51061;45.258;38.112;2022-07-23T00:07:52;19.77;80.62
64650;HTU21D;51061;45.258;38.112;2022-07-23T00:10:17;19.62;80.56
64650;HTU21D;51061;45.258;38.112;2022-07-23T00:12:44;19.72;80.91
64650;HTU21D;51061;45.258;38.112;2022-07-23T00:15:10;19.76;81.25
64650;HTU21D;51061;45.258;38.112;2022-07-23T00:17:36;19.76;81.49
64650;HTU21D;51061;45.258;38.112;2022-07-23T00:20:02;19.66;80.84
64650;HTU21D;51061;45.258;38.112;2022-07-23T00:22:28;19.70;81.07
64650;HTU21D;51061;45.258;38.112;2022-07-23T00:24:56;19.67;80.88
64650;HTU21D;51061;45.258;38.112;2022-07-23T00:27:22;19.59;80.85
64650;HTU21D;51061;45.258;38.112;2022-07-23T00:29:48;19.52;80.52
64650;HTU21D;51061;45.258;38.112;2022-07-23T00:32:15;19.43;80.44
64650;HTU21D;51061;45.258;38.112;2022-07-23T00:34:41;19.29;80.41
64650;HTU21D;51061;45.258;38.112;2022-07-23T00:37:07;19.18;80.28
64650;HTU21D;51061;45.258;38.112;2022-07-23T00:39:33;19.05;80.23
64650;HTU21D;51061;45.258;38.112;2022-07-23T00:41:59;18.68;80.69
64650;HTU21D;51061;45.258;38.112;2022-07-23T00:44:26;18.62;80.32
64650;HTU21D;51061;45.258;38.112;2022-07-23T00:46:55;18.43;80.33
64650;HTU21D;51061;45.258;38.112;2022-07-23T00:49:23;18.32;80.49
64650;HTU21D;51061;45.258;38.112;2022-07-23T00:51:50;18.30;80.48
64650;HTU21D;51061;45.258;38.112;2022-07-23T00:54:17;18.38;80.75
64650;HTU21D;51061;45.258;38.112;2022-07-23T00:56:45;18.47;80.86
64650;HTU21D;51061;45.258;38.112;2022-07-23T00:59:11;18.52;80.45
64650;HTU21D;51061;45.258;38.112;2022-07-23T01:01:37;18.37;80.53
64650;HTU21D;51061;45.258;38.112;2022-07-23T01:04:03;18.43;80.24
64650;HTU21D;51061;45.258;38.112;2022-07-23T01:06:34;18.38;80.30
64650;HTU21D;51061;45.258;38.112;2022-07-23T01:09:01;18.33;80.56
64650;HTU21D;51061;45.258;38.112;2022-07-23T01:11:27;18.32;80.61
64650;HTU21D;51061;45.258;38.112;2022-07-23T01:13:53;18.10;81.01
64650;HTU21D;51061;45.258;38.112;2022-07-23T01:16:19;18.20;80.81
64650;HTU21D;51061;45.258;38.112;2022-07-23T01:18:46;18.19;80.88
64650;HTU21D;51061;45.258;38.112;2022-07-23T01:21:12;18.17;81.04
64650;HTU21D;51061;45.258;38.112;2022-07-23T01:23:39;18.17;81.11
64650;HTU21D;51061;45.258;38.112;2022-07-23T01:26:05;18.18;81.14
64650;HTU21D;51061;45.258;38.112;2022-07-23T01:28:32;18.20;81.20
64650;HTU21D;51061;45.258;38.112;2022-07-23T01:30:59;18.20;81.18
64650;HTU21D;51061;45.258;38.112;2022-07-23T01:33:32;18.21;81.08
64650;HTU21D;51061;45.258;38.112;2022-07-23T01:35:58;17.99;81.32
64650;HTU21D;51061;45.258;38.112;2022-07-23T01:38:25;17.90;81.46
64650;HTU21D;51061;45.258;38.112;2022-07-23T01:40:51;17.99;81.30
64650;HTU21D;51061;45.258;38.112;2022-07-23T01:43:18;18.03;81.22
64650;HTU21D;51061;45.258;38.112;2022-07-23T01:45:44;18.03;81.22
64650;HTU21D;51061;45.258;38.112;2022-07-23T01:48:12;18.04;81.15
64650;HTU21D;51061;45.258;38.112;2022-07-23T01:50:47;18.06;81.13
64650;HTU21D;51061;45.258;38.112;2022-07-23T01:53:42;18.05;81.17
64650;HTU21D;51061;45.258;38.112;2022-07-23T01:56:08;17.87;81.37
64650;HTU21D;51061;45.258;38.112;2022-07-23T01:58:34;17.99;81.20
64650;HTU21D;51061;45.258;38.112;2022-07-23T02:01:00;18.05;81.15
64650;HTU21D;51061;45.258;38.112;2022-07-23T02:03:27;18.07;81.12
64650;HTU21D;51061;45.258;38.112;2022-07-23T02:05:53;17.92;81.28
64650;HTU21D;51061;45.258;38.112;2022-07-23T02:08:19;18.05;81.22
64650;HTU21D;51061;45.258;38.112;2022-07-23T02:10:45;18.10;81.16
64650;HTU21D;51061;45.258;38.112;2022-07-23T02:13:11;17.95;81.28
64650;HTU21D;51061;45.258;38.112;2022-07-23T02:15:37;18.09;81.12
64650;HTU21D;51061;45.258;38.112;2022-07-23T02:18:03;17.96;81.11
64650;HTU21D;51061;45.258;38.112;2022-07-23T02:20:30;18.08;81.06
64650;HTU21D;51061;45.258;38.112;2022-07-23T02:22:56;18.00;81.00
64650;HTU21D;51061;45.258;38.112;2022-07-23T02:25:22;18.11;80.93
64650;HTU21D;51061;45.258;38.112;2022-07-23T02:27:53;18.15;80.94
64650;HTU21D;51061;45.258;38.112;2022-07-23T02:30:19;18.18;80.99
64650;HTU21D;51061;45.258;38.112;2022-07-23T02:32:45;18.02;81.03
64650;HTU21D;51061;45.258;38.112;2022-07-23T02:35:11;18.15;80.99
64650;HTU21D;51061;45.258;38.112;2022-07-23T02:37:37;18.18;80.95
64650;HTU21D;51061;45.258;38.112;2022-07-23T02:40:03;18.04;80.99
64650;HTU21D;51061;45.258;38.112;2022-07-23T02:42:33;18.14;81.08
64650;HTU21D;51061;45.258;38.112;2022-07-23T02:44:59;18.03;81.10
64650;HTU21D;51061;45.258;38.112;2022-07-23T02:47:25;18.17;81.13
64650;HTU21D;51061;45.258;38.112;2022-07-23T02:49:51;18.09;81.09
64650;HTU21D;51061;45.258;38.112;2022-07-23T02:52:17;18.23;81.07
64650;HTU21D;51061;45.258;38.112;2022-07-23T02:54:43;18.32;81.12
64650;HTU21D;51061;45.258;38.112;2022-07-23T02:57:13;18.38;81.12
64650;HTU21D;51061;45.258;38.112;2022-07-23T02:59:39;18.46;81.18
64650;HTU21D;51061;45.258;38.112;2022-07-23T03:02:05;18.34;81.02
64650;HTU21D;51061;45.258;38.112;2022-07-23T03:04:31;18.52;81.07
64650;HTU21D;51061;45.258;38.112;2022-07-23T03:06:57;18.61;81.15
64650;HTU21D;51061;45.258;38.112;2022-07-23T03:09:24;18.69;81.23
64650;HTU21D;51061;45.258;38.112;2022-07-23T03:11:51;18.77;81.21
64650;HTU21D;51061;45.258;38.112;2022-07-23T03:14:19;18.83;81.36
64650;HTU21D;51061;45.258;38.112;2022-07-23T03:16:45;18.87;81.38
64650;HTU21D;51061;45.258;38.112;2022-07-23T03:19:11;18.79;81.33
64650;HTU21D;51061;45.258;38.112;2022-07-23T03:21:37;18.99;81.35
64650;HTU21D;51061;45.258;38.112;2022-07-23T03:24:09;19.09;81.27
64650;HTU21D;51061;45.258;38.112;2022-07-23T03:26:36;19.21;81.63
64650;HTU21D;51061;45.258;38.112;2022-07-23T03:29:02;19.27;81.41
64650;HTU21D;51061;45.258;38.112;2022-07-23T03:31:30;19.40;81.30
64650;HTU21D;51061;45.258;38.112;2022-07-23T03:33:57;19.50;81.06
64650;HTU21D;51061;45.258;38.112;2022-07-23T03:36:24;19.62;81.01
64650;HTU21D;51061;45.258;38.112;2022-07-23T03:38:52;19.77;80.83
64650;HTU21D;51061;45.258;38.112;2022-07-23T03:41:19;19.89;80.91
64650;HTU21D;51061;45.258;38.112;2022-07-23T03:43:46;20.03;80.91
64650;HTU21D;51061;45.258;38.112;2022-07-23T03:46:12;20.21;80.46
64650;HTU21D;51061;45.258;38.112;2022-07-23T03:48:39;20.26;80.54
64650;HTU21D;51061;45.258;38.112;2022-07-23T03:51:05;20.37;80.40
64650;HTU21D;51061;45.258;38.112;2022-07-23T03:53:31;20.40;80.46
64650;HTU21D;51061;45.258;38.112;2022-07-23T03:55:58;20.47;80.57
64650;HTU21D;51061;45.258;38.112;2022-07-23T03:58:24;20.48;80.83
64650;HTU21D;51061;45.258;38.112;2022-07-23T04:00:51;20.44;80.86
64650;HTU21D;51061;45.258;38.112;2022-07-23T04:03:19;20.47;80.97
64650;HTU21D;51061;45.258;38.112;2022-07-23T04:05:45;20.50;80.86
64650;HTU21D;51061;45.258;38.112;2022-07-23T04:08:13;20.58;80.73
64650;HTU21D;51061;45.258;38.112;2022-07-23T04:10:43;20.59;80.85
64650;HTU21D;51061;45.258;38.112;2022-07-23T04:13:10;20.64;80.78
64650;HTU21D;51061;45.258;38.112;2022-07-23T04:15:36;20.72;80.81
64650;HTU21D;51061;45.258;38.112;2022-07-23T04:18:04;20.74;81.09
64650;HTU21D;51061;45.258;38.112;2022-07-23T04:20:41;20.80;81.08
64650;HTU21D;51061;45.258;38.112;2022-07-23T04:23:09;20.85;80.75
64650;HTU21D;51061;45.258;38.112;2022-07-23T04:25:38;20.88;80.82
64650;HTU21D;51061;45.258;38.112;2022-07-23T04:28:05;20.90;80.65
64650;HTU21D;51061;45.258;38.112;2022-07-23T04:30:31;20.74;81.07
64650;HTU21D;51061;45.258;38.112;2022-07-23T04:32:57;20.89;80.61
64650;HTU21D;51061;45.258;38.112;2022-07-23T04:35:27;20.98;80.39
64650;HTU21D;51061;45.258;38.112;2022-07-23T04:38:02;21.10;80.33
64650;HTU21D;51061;45.258;38.112;2022-07-23T04:40:28;21.31;79.62
64650;HTU21D;51061;45.258;38.112;2022-07-23T04:42:55;21.40;79.47
64650;HTU21D;51061;45.258;38.112;2022-07-23T04:45:22;21.46;79.21
64650;HTU21D;51061;45.258;38.112;2022-07-23T04:47:51;21.52;79.10
64650;HTU21D;51061;45.258;38.112;2022-07-23T04:50:17;21.60;78.80
64650;HTU21D;51061;45.258;38.112;2022-07-23T04:52:48;21.65;78.58
64650;HTU21D;51061;45.258;38.112;2022-07-23T04:55:15;21.79;78.57
64650;HTU21D;51061;45.258;38.112;2022-07-23T04:57:41;21.93;77.88
64650;HTU21D;51061;45.258;38.112;2022-07-23T05:00:08;21.97;77.66
64650;HTU21D;51061;45.258;38.112;2022-07-23T05:02:34;22.07;77.53
64650;HTU21D;51061;45.258;38.112;2022-07-23T05:05:00;22.27;77.21
64650;HTU21D;51061;45.258;38.112;2022-07-23T05:07:27;22.52;76.14
64650;HTU21D;51061;45.258;38.112;2022-07-23T05:09:53;22.52;75.79
64650;HTU21D;51061;45.258;38.112;2022-07-23T05:12:19;22.54;75.79
64650;HTU21D;51061;45.258;38.112;2022-07-23T05:14:46;22.57;75.29
64650;HTU21D;51061;45.258;38.112;2022-07-23T05:17:12;22.37;75.26
64650;HTU21D;51061;45.258;38.112;2022-07-23T05:19:38;22.18;75.85
64650;HTU21D;51061;45.258;38.112;2022-07-23T05:22:04;22.10;76.08
64650;HTU21D;51061;45.258;38.112;2022-07-23T05:24:31;22.10;76.08
64650;HTU21D;51061;45.258;38.112;2022-07-23T05:26:57;22.23;75.70
64650;HTU21D;51061;45.258;38.112;2022-07-23T05:29:23;22.29;75.69
64650;HTU21D;51061;45.258;38.112;2022-07-23T05:31:49;22.37;75.73
64650;HTU21D;51061;45.258;38.112;2022-07-23T05:34:16;22.47;75.28
64650;HTU21D;51061;45.258;38.112;2022-07-23T05:36:43;22.51;75.15
64650;HTU21D;51061;45.258;38.112;2022-07-23T05:39:10;22.55;75.07
64650;HTU21D;51061;45.258;38.112;2022-07-23T05:41:37;22.54;75.30
64650;HTU21D;51061;45.258;38.112;2022-07-23T05:44:03;22.69;75.07
64650;HTU21D;51061;45.258;38.112;2022-07-23T05:46:30;22.92;74.64
64650;HTU21D;51061;45.258;38.112;2022-07-23T05:49:02;23.08;74.02
64650;HTU21D;51061;45.258;38.112;2022-07-23T05:51:46;23.31;73.61
64650;HTU21D;51061;45.258;38.112;2022-07-23T05:54:15;23.43;72.93
64650;HTU21D;51061;45.258;38.112;2022-07-23T05:56:41;23.55;72.73
64650;HTU21D;51061;45.258;38.112;2022-07-23T05:59:07;23.45;72.29
64650;HTU21D;51061;45.258;38.112;2022-07-23T06:01:34;23.37;72.64
64650;HTU21D;51061;45.258;38.112;2022-07-23T06:04:09;23.30;72.55
64650;HTU21D;51061;45.258;38.112;2022-07-23T06:06:38;23.27;72.22
64650;HTU21D;51061;45.258;38.112;2022-07-23T06:09:06;23.22;71.26
64650;HTU21D;51061;45.258;38.112;2022-07-23T06:11:34;23.21;71.07
64650;HTU21D;51061;45.258;38.112;2022-07-23T06:14:00;23.26;70.90
64650;HTU21D;51061;45.258;38.112;2022-07-23T06:16:39;23.32;70.75
64650;HTU21D;51061;45.258;38.112;2022-07-23T06:19:05;23.41;70.57
64650;HTU21D;51061;45.258;38.112;2022-07-23T06:21:31;23.49;69.87
64650;HTU21D;51061;45.258;38.112;2022-07-23T06:23:57;23.56;69.17
64650;HTU21D;51061;45.258;38.112;2022-07-23T06:26:23;23.67;68.97
64650;HTU21D;51061;45.258;38.112;2022-07-23T06:28:50;23.82;67.91
64650;HTU21D;51061;45.258;38.112;2022-07-23T06:31:16;23.90;67.16
64650;HTU21D;51061;45.258;38.112;2022-07-23T06:33:42;24.02;66.85
64650;HTU21D;51061;45.258;38.112;2022-07-23T06:36:08;24.19;66.49
64650;HTU21D;51061;45.258;38.112;2022-07-23T06:38:34;24.41;66.09
64650;HTU21D;51061;45.258;38.112;2022-07-23T06:41:00;24.62;65.29
64650;HTU21D;51061;45.258;38.112;2022-07-23T06:43:26;24.85;64.98
64650;HTU21D;51061;45.258;38.112;2022-07-23T06:45:54;25.03;63.70
64650;HTU21D;51061;45.258;38.112;2022-07-23T06:48:21;25.10;63.09
64650;HTU21D;51061;45.258;38.112;2022-07-23T06:50:48;25.28;62.84
64650;HTU21D;51061;45.258;38.112;2022-07-23T06:53:15;25.33;62.28
64650;HTU21D;51061;45.258;38.112;2022-07-23T06:55:41;25.32;61.92
64650;HTU21D;51061;45.258;38.112;2022-07-23T06:58:08;25.34;61.63
64650;HTU21D;51061;45.258;38.112;2022-07-23T07:00:36;25.28;61.50
64650;HTU21D;51061;45.258;38.112;2022-07-23T07:03:02;25.31;61.28
64650;HTU21D;51061;45.258;38.112;2022-07-23T07:05:28;25.32;60.87
64650;HTU21D;51061;45.258;38.112;2022-07-23T07:07:55;25.39;60.66
64650;HTU21D;51061;45.258;38.112;2022-07-23T07:10:21;25.54;60.52
64650;HTU21D;51061;45.258;38.112;2022-07-23T07:12:47;25.71;59.60
64650;HTU21D;51061;45.258;38.112;2022-07-23T07:15:13;25.82;59.60
64650;HTU21D;51061;45.258;38.112;2022-07-23T07:17:39;25.95;58.57
64650;HTU21D;51061;45.258;38.112;2022-07-23T07:20:06;26.08;58.30
64650;HTU21D;51061;45.258;38.112;2022-07-23T07:22:32;26.13;58.06
64650;HTU21D;51061;45.258;38.112;2022-07-23T07:24:58;26.17;57.55
64650;HTU21D;51061;45.258;38.112;2022-07-23T07:27:24;26.28;56.84
64650;HTU21D;51061;45.258;38.112;2022-07-23T07:29:50;26.41;56.65
64650;HTU21D;51061;45.258;38.112;2022-07-23T07:32:16;26.64;55.71
64650;HTU21D;51061;45.258;38.112;2022-07-23T07:34:42;26.98;55.15
64650;HTU21D;51061;45.258;38.112;2022-07-23T07:37:08;27.24;54.33
64650;HTU21D;51061;45.258;38.112;2022-07-23T07:39:34;27.39;53.95
64650;HTU21D;51061;45.258;38.112;2022-07-23T07:42:00;27.36;53.57
64650;HTU21D;51061;45.258;38.112;2022-07-23T07:44:26;27.40;53.21
64650;HTU21D;51061;45.258;38.112;2022-07-23T07:46:52;27.50;52.73
64650;HTU21D;51061;45.258;38.112;2022-07-23T07:49:18;27.67;52.62
64650;HTU21D;51061;45.258;38.112;2022-07-23T07:51:45;27.84;52.44
64650;HTU21D;51061;45.258;38.112;2022-07-23T07:54:14;27.84;51.72
64650;HTU21D;51061;45.258;38.112;2022-07-23T07:56:40;27.73;52.05
64650;HTU21D;51061;45.258;38.112;2022-07-23T07:59:07;27.79;51.91
64650;HTU21D;51061;45.258;38.112;2022-07-23T08:01:33;27.95;51.49
64650;HTU21D;51061;45.258;38.112;2022-07-23T08:03:59;28.16;50.93
64650;HTU21D;51061;45.258;38.112;2022-07-23T08:06:25;28.30;50.17
64650;HTU21D;51061;45.258;38.112;2022-07-23T08:08:51;28.34;50.18
64650;HTU21D;51061;45.258;38.112;2022-07-23T08:11:17;28.41;50.10
64650;HTU21D;51061;45.258;38.112;2022-07-23T08:13:43;28.31;50.04
64650;HTU21D;51061;45.258;38.112;2022-07-23T08:16:11;28.38;50.12
64650;HTU21D;51061;45.258;38.112;2022-07-23T08:18:37;28.54;49.18
64650;HTU21D;51061;45.258;38.112;2022-07-23T08:21:03;28.56;49.27
64650;HTU21D;51061;45.258;38.112;2022-07-23T08:23:32;28.68;48.92
64650;HTU21D;51061;45.258;38.112;2022-07-23T08:25:58;29.30;47.81
64650;HTU21D;51061;45.258;38.112;2022-07-23T08:28:25;30.26;44.83
64650;HTU21D;51061;45.258;38.112;2022-07-23T08:30:51;31.52;41.90
64650;HTU21D;51061;45.258;38.112;2022-07-23T08:33:18;32.19;40.78
64650;HTU21D;51061;45.258;38.112;2022-07-23T08:35:49;32.94;39.65
64650;HTU21D;51061;45.258;38.112;2022-07-23T08:38:17;33.52;38.03
64650;HTU21D;51061;45.258;38.112;2022-07-23T08:40:46;33.90;37.28
64650;HTU21D;51061;45.258;38.112;2022-07-23T08:43:24;34.64;36.36
64650;HTU21D;51061;45.258;38.112;2022-07-23T08:45:53;34.75;35.50
64650;HTU21D;51061;45.258;38.112;2022-07-23T08:48:21;34.79;35.21
64650;HTU21D;51061;45.258;38.112;2022-07-23T08:50:52;35.31;33.70
64650;HTU21D;51061;45.258;38.112;2022-07-23T08:53:19;34.54;34.44
64650;HTU21D;51061;45.258;38.112;2022-07-23T08:55:47;34.51;34.55
64650;HTU21D;51061;45.258;38.112;2022-07-23T08:58:14;33.82;35.53
64650;HTU21D;51061;45.258;38.112;2022-07-23T09:00:41;32.94;36.57
64650;HTU21D;51061;45.258;38.112;2022-07-23T09:03:09;33.75;35.09
64650;HTU21D;51061;45.258;38.112;2022-07-23T09:05:40;34.73;33.16
64650;HTU21D;51061;45.258;38.112;2022-07-23T09:08:17;35.27;32.79
64650;HTU21D;51061;45.258;38.112;2022-07-23T09:10:49;35.99;31.22
64650;HTU21D;51061;45.258;38.112;2022-07-23T09:15:56;35.55;31.75
64650;HTU21D;51061;45.258;38.112;2022-07-23T09:21:13;36.60;30.12
64650;HTU21D;51061;45.258;38.112;2022-07-23T09:23:47;35.67;30.89
64650;HTU21D;51061;45.258;38.112;2022-07-23T09:26:43;34.62;33.31
64650;HTU21D;51061;45.258;38.112;2022-07-23T09:29:22;35.04;32.52
64650;HTU21D;51061;45.258;38.112;2022-07-23T09:34:33;33.89;33.86
64650;HTU21D;51061;45.258;38.112;2022-07-23T09:37:19;35.48;32.73
64650;HTU21D;51061;45.258;38.112;2022-07-23T09:39:47;35.88;31.02
64650;HTU21D;51061;45.258;38.112;2022-07-23T09:42:24;36.41;30.03
64650;HTU21D;51061;45.258;38.112;2022-07-23T09:44:52;36.29;29.86
64650;HTU21D;51061;45.258;38.112;2022-07-23T09:47:19;35.19;31.12
64650;HTU21D;51061;45.258;38.112;2022-07-23T09:50:09;35.82;31.16
64650;HTU21D;51061;45.258;38.112;2022-07-23T09:52:43;36.12;29.93
64650;HTU21D;51061;45.258;38.112;2022-07-23T09:55:10;36.19;29.54
64650;HTU21D;51061;45.258;38.112;2022-07-23T09:57:37;37.00;28.69
64650;HTU21D;51061;45.258;38.112;2022-07-23T10:00:06;37.80;27.81
64650;HTU21D;51061;45.258;38.112;2022-07-23T10:02:36;38.32;26.56
64650;HTU21D;51061;45.258;38.112;2022-07-23T10:05:21;37.99;27.18
64650;HTU21D;51061;45.258;38.112;2022-07-23T10:08:11;36.72;28.87
64650;HTU21D;51061;45.258;38.112;2022-07-23T10:10:56;36.33;29.20
64650;HTU21D;51061;45.258;38.112;2022-07-23T10:13:42;35.48;30.45
64650;HTU21D;51061;45.258;38.112;2022-07-23T10:16:15;36.29;29.21
64650;HTU21D;51061;45.258;38.112;2022-07-23T10:18:41;37.62;27.13
64650;HTU21D;51061;45.258;38.112;2022-07-23T10:21:08;38.56;25.94
64650;HTU21D;51061;45.258;38.112;2022-07-23T10:23:39;38.50;25.35
64650;HTU21D;51061;45.258;38.112;2022-07-23T10:26:12;38.40;25.30
64650;HTU21D;51061;45.258;38.112;2022-07-23T10:31:31;38.93;25.33
64650;HTU21D;51061;45.258;38.112;2022-07-23T10:34:24;39.95;24.47
64650;HTU21D;51061;45.258;38.112;2022-07-23T10:39:30;40.78;22.76
64650;HTU21D;51061;45.258;38.112;2022-07-23T10:42:13;41.03;22.09
64650;HTU21D;51061;45.258;38.112;2022-07-23T10:44:47;39.58;23.71
64650;HTU21D;51061;45.258;38.112;2022-07-23T10:47:27;40.10;23.40
64650;HTU21D;51061;45.258;38.112;2022-07-23T10:50:23;40.85;22.92
64650;HTU21D;51061;45.258;38.112;2022-07-23T10:58:02;40.17;22.41
64650;HTU21D;51061;45.258;38.112;2022-07-23T11:00:30;39.62;23.18
64650;HTU21D;51061;45.258;38.112;2022-07-23T11:03:02;39.28;23.25
64650;HTU21D;51061;45.258;38.112;2022-07-23T11:05:45;39.00;23.61
64650;HTU21D;51061;45.258;38.112;2022-07-23T11:08:17;37.92;25.15
64650;HTU21D;51061;45.258;38.112;2022-07-23T11:32:07;32.53;33.54
64650;HTU21D;51061;45.258;38.112;2022-07-23T11:34:39;32.33;34.12
64650;HTU21D;51061;45.258;38.112;2022-07-23T11:37:08;32.14;34.54
64650;HTU21D;51061;45.258;38.112;2022-07-23T11:39:35;32.09;34.60
64650;HTU21D;51061;45.258;38.112;2022-07-23T11:42:03;32.03;34.79
64650;HTU21D;51061;45.258;38.112;2022-07-23T11:44:37;31.94;35.12
64650;HTU21D;51061;45.258;38.112;2022-07-23T11:47:07;31.74;35.17
64650;HTU21D;51061;45.258;38.112;2022-07-23T11:49:34;31.49;35.31
64650;HTU21D;51061;45.258;38.112;2022-07-23T11:52:10;31.25;35.74
64650;HTU21D;51061;45.258;38.112;2022-07-23T11:57:15;30.83;36.34
64650;HTU21D;51061;45.258;38.112;2022-07-23T11:59:42;30.69;36.79
64650;HTU21D;51061;45.258;38.112;2022-07-23T12:02:09;30.63;36.91
64650;HTU21D;51061;45.258;38.112;2022-07-23T12:04:43;30.53;37.05
64650;HTU21D;51061;45.258;38.112;2022-07-23T12:07:39;30.40;37.42
64650;HTU21D;51061;45.258;38.112;2022-07-23T12:15:13;30.18;38.24
64650;HTU21D;51061;45.258;38.112;2022-07-23T12:17:44;30.04;38.14
64650;HTU21D;51061;45.258;38.112;2022-07-23T12:20:30;29.82;38.35
64650;HTU21D;51061;45.258;38.112;2022-07-23T12:22:58;29.78;38.35
64650;HTU21D;51061;45.258;38.112;2022-07-23T12:25:35;29.74;38.35
64650;HTU21D;51061;45.258;38.112;2022-07-23T12:28:09;29.67;38.36
64650;HTU21D;51061;45.258;38.112;2022-07-23T12:30:40;29.67;38.73
64650;HTU21D;51061;45.258;38.112;2022-07-23T12:33:11;29.71;38.81
64650;HTU21D;51061;45.258;38.112;2022-07-23T12:35:45;29.74;38.73
64650;HTU21D;51061;45.258;38.112;2022-07-23T12:38:14;29.74;38.59
64650;HTU21D;51061;45.258;38.112;2022-07-23T12:40:44;29.61;38.72
64650;HTU21D;51061;45.258;38.112;2022-07-23T12:43:21;29.51;39.00
64650;HTU21D;51061;45.258;38.112;2022-07-23T12:46:24;29.50;39.01
64650;HTU21D;51061;45.258;38.112;2022-07-23T12:53:48;29.28;39.37
64650;HTU21D;51061;45.258;38.112;2022-07-23T12:56:31;29.16;39.62
64650;HTU21D;51061;45.258;38.112;2022-07-23T12:59:05;29.02;39.84
64650;HTU21D;51061;45.258;38.112;2022-07-23T13:01:56;28.92;40.14
64650;HTU21D;51061;45.258;38.112;2022-07-23T13:04:25;28.93;40.21
64650;HTU21D;51061;45.258;38.112;2022-07-23T13:06:57;28.92;40.36
64650;HTU21D;51061;45.258;38.112;2022-07-23T13:09:27;28.89;40.45
64650;HTU21D;51061;45.258;38.112;2022-07-23T13:11:54;28.87;40.59
64650;HTU21D;51061;45.258;38.112;2022-07-23T13:14:21;28.86;40.63
64650;HTU21D;51061;45.258;38.112;2022-07-23T13:16:51;28.87;40.60
64650;HTU21D;51061;45.258;38.112;2022-07-23T13:19:18;28.82;40.50
64650;HTU21D;51061;45.258;38.112;2022-07-23T13:21:45;28.74;40.46
64650;HTU21D;51061;45.258;38.112;2022-07-23T13:24:12;28.64;40.57
64650;HTU21D;51061;45.258;38.112;2022-07-23T13:26:39;28.52;40.80
64650;HTU21D;51061;45.258;38.112;2022-07-23T13:29:06;28.43;40.92
64650;HTU21D;51061;45.258;38.112;2022-07-23T13:31:32;28.40;41.32
64650;HTU21D;51061;45.258;38.112;2022-07-23T13:33:58;28.31;41.67
64650;HTU21D;51061;45.258;38.112;2022-07-23T13:36:24;28.27;41.84
64650;HTU21D;51061;45.258;38.112;2022-07-23T13:38:50;28.31;41.87
64650;HTU21D;51061;45.258;38.112;2022-07-23T13:41:17;28.32;41.90
64650;HTU21D;51061;45.258;38.112;2022-07-23T13:43:44;28.30;42.07
64650;HTU21D;51061;45.258;38.112;2022-07-23T13:46:10;28.21;42.22
64650;HTU21D;51061;45.258;38.112;2022-07-23T13:48:36;28.13;42.15
64650;HTU21D;51061;45.258;38.112;2022-07-23T13:51:02;28.14;42.26
64650;HTU21D;51061;45.258;38.112;2022-07-23T13:53:28;28.17;42.28
64650;HTU21D;51061;45.258;38.112;2022-07-23T13:55:54;28.18;42.08
64650;HTU21D;51061;45.258;38.112;2022-07-23T13:58:21;28.15;41.96
64650;HTU21D;51061;45.258;38.112;2022-07-23T14:00:51;28.23;42.03
64650;HTU21D;51061;45.258;38.112;2022-07-23T14:03:18;28.21;42.09
64650;HTU21D;51061;45.258;38.112;2022-07-23T14:05:44;28.11;42.19
64650;HTU21D;51061;45.258;38.112;2022-07-23T14:08:11;27.97;42.37
64650;HTU21D;51061;45.258;38.112;2022-07-23T14:10:37;27.88;42.55
64650;HTU21D;51061;45.258;38.112;2022-07-23T14:13:03;27.81;42.74
64650;HTU21D;51061;45.258;38.112;2022-07-23T14:15:31;27.74;43.11
64650;HTU21D;51061;45.258;38.112;2022-07-23T14:17:58;27.69;43.26
64650;HTU21D;51061;45.258;38.112;2022-07-23T14:20:25;27.64;43.37
64650;HTU21D;51061;45.258;38.112;2022-07-23T14:22:51;27.58;43.58
64650;HTU21D;51061;45.258;38.112;2022-07-23T14:25:18;27.59;43.74
64650;HTU21D;51061;45.258;38.112;2022-07-23T14:27:45;27.64;43.74
64650;HTU21D;51061;45.258;38.112;2022-07-23T14:30:13;27.59;43.80
64650;HTU21D;51061;45.258;38.112;2022-07-23T14:32:40;27.49;43.72
64650;HTU21D;51061;45.258;38.112;2022-07-23T14:35:06;27.38;43.86
64650;HTU21D;51061;45.258;38.112;2022-07-23T14:37:33;27.32;43.97
64650;HTU21D;51061;45.258;38.112;2022-07-23T14:39:59;27.28;44.01
64650;HTU21D;51061;45.258;38.112;2022-07-23T14:42:26;27.20;44.31
64650;HTU21D;51061;45.258;38.112;2022-07-23T14:44:52;27.12;44.55
64650;HTU21D;51061;45.258;38.112;2022-07-23T14:47:19;27.10;44.89
64650;HTU21D;51061;45.258;38.112;2022-07-23T14:49:45;27.06;44.88
64650;HTU21D;51061;45.258;38.112;2022-07-23T14:52:11;26.97;45.06
64650;HTU21D;51061;45.258;38.112;2022-07-23T14:54:37;26.92;45.11
64650;HTU21D;51061;45.258;38.112;2022-07-23T14:57:03;26.87;45.20
64650;HTU21D;51061;45.258;38.112;2022-07-23T14:59:30;26.86;45.37
64650;HTU21D;51061;45.258;38.112;2022-07-23T15:01:57;26.82;45.63
64650;HTU21D;51061;45.258;38.112;2022-07-23T15:04:23;26.73;45.80
64650;HTU21D;51061;45.258;38.112;2022-07-23T15:06:50;26.69;46.09
64650;HTU21D;51061;45.258;38.112;2022-07-23T15:09:16;26.64;46.25
64650;HTU21D;51061;45.258;38.112;2022-07-23T15:11:43;26.60;46.35
64650;HTU21D;51061;45.258;38.112;2022-07-23T15:14:09;26.56;46.54
64650;HTU21D;51061;45.258;38.112;2022-07-23T15:16:36;26.52;46.69
64650;HTU21D;51061;45.258;38.112;2022-07-23T15:19:03;26.48;46.83
64650;HTU21D;51061;45.258;38.112;2022-07-23T15:21:29;26.45;46.98
64650;HTU21D;51061;45.258;38.112;2022-07-23T15:23:57;26.47;47.13
64650;HTU21D;51061;45.258;38.112;2022-07-23T15:26:27;26.49;47.08
64650;HTU21D;51061;45.258;38.112;2022-07-23T15:28:53;26.46;47.24
64650;HTU21D;51061;45.258;38.112;2022-07-23T15:31:20;26.40;47.44
64650;HTU21D;51061;45.258;38.112;2022-07-23T15:33:46;26.28;47.60
64650;HTU21D;51061;45.258;38.112;2022-07-23T15:36:13;26.21;47.85
64650;HTU21D;51061;45.258;38.112;2022-07-23T15:38:39;26.13;48.03
64650;HTU21D;51061;45.258;38.112;2022-07-23T15:41:05;26.08;48.10
64650;HTU21D;51061;45.258;38.112;2022-07-23T15:43:33;26.05;48.22
64650;HTU21D;51061;45.258;38.112;2022-07-23T15:46:00;26.04;48.40
64650;HTU21D;51061;45.258;38.112;2022-07-23T15:48:26;25.99;48.47
64650;HTU21D;51061;45.258;38.112;2022-07-23T15:50:52;25.96;48.47
64650;HTU21D;51061;45.258;38.112;2022-07-23T15:53:19;25.93;48.57
64650;HTU21D;51061;45.258;38.112;2022-07-23T15:55:46;25.88;48.73
64650;HTU21D;51061;45.258;38.112;2022-07-23T15:58:13;25.83;48.82
64650;HTU21D;51061;45.258;38.112;2022-07-23T16:00:39;25.79;49.07
64650;HTU21D;51061;45.258;38.112;2022-07-23T16:03:05;25.76;49.27